Time;durP1;ratioP1;P1;durP2;ratioP2;P2;SDS_P1;SDS_P2;PMS_P1;PMS_P2;Temp;Humidity;BMP_temperature;BMP_pressure;BME280_temperature;BME280_humidity;BME280_pressure;Samples;Min_cycle;Max_cycle;Signal;HPM_P1;HPM_P2
2021/12/18 00:01:06;;;;;;;;;;;;;;;16.82;66.74;101353.75;5053465;28;1051;-42
2021/12/18 00:03:33;;;;;;;;;;;;;;;16.79;67.33;101353.09;5042495;28;1680;-41
2021/12/18 00:06:00;;;;;;;;;;;;;;;16.75;67.37;101347.13;5050550;28;2013;-42
2021/12/18 00:08:26;;;;;;;;;;;;;;;16.71;67.49;101358.94;5049380;28;1991;-41
2021/12/18 00:10:55;;;;;;;;;;;;;;;16.71;67.43;101361.63;5050362;28;1906;-41
2021/12/18 00:13:23;;;;;;;;;;;;;;;16.65;66.88;101352.25;5052679;28;1551;-41
2021/12/18 00:15:50;;;;;;;;;;;;;;;16.71;67.42;101348.28;5051509;28;1813;-41
2021/12/18 00:18:16;;;;;;;;;;;;;;;16.75;66.58;101357.81;5052119;28;1766;-41
2021/12/18 00:20:43;;;;;;;;;;;;;;;16.76;66.61;101374.69;5050770;28;2285;-41
2021/12/18 00:23:10;;;;;;;;;;;;;;;16.70;67.12;101355.44;5046154;28;1733;-41
2021/12/18 00:25:36;;;;;;;;;;;;;;;16.76;67.28;101370.19;5045753;28;1761;-41
2021/12/18 00:28:03;;;;;;;;;;;;;;;16.75;66.95;101356.94;5052732;28;1520;-41
2021/12/18 00:30:33;;;;;;;;;;;;;;;16.74;67.35;101368.59;5045257;28;1975;-42
2021/12/18 00:32:59;;;;;;;;;;;;;;;16.70;67.51;101366.13;5046043;28;1796;-41
2021/12/18 00:35:26;;;;;;;;;;;;;;;16.66;66.87;101369.97;5049018;28;1923;-41
2021/12/18 00:37:52;;;;;;;;;;;;;;;16.67;67.41;101370.81;5045506;28;1952;-41
2021/12/18 00:40:22;;;;;;;;;;;;;;;16.66;66.87;101371.78;5050692;28;1811;-41
2021/12/18 00:42:56;;;;;;;;;;;;;;;16.59;67.05;101368.69;5052315;28;1552;-41
2021/12/18 00:45:23;;;;;;;;;;;;;;;16.54;67.28;101368.13;5052085;28;2002;-41
2021/12/18 00:47:50;;;;;;;;;;;;;;;16.64;67.35;101376.38;5051247;28;1802;-41
2021/12/18 00:50:19;;;;;;;;;;;;;;;16.72;66.91;101370.50;5046957;28;2015;-43
2021/12/18 00:52:46;;;;;;;;;;;;;;;16.62;67.57;101368.47;5043200;28;2539;-41
2021/12/18 00:55:13;;;;;;;;;;;;;;;16.64;67.45;101371.88;5041408;28;1672;-41
2021/12/18 00:57:39;;;;;;;;;;;;;;;16.63;67.37;101361.28;5052310;28;1087;-41
2021/12/18 01:00:07;;;;;;;;;;;;;;;16.57;66.35;101367.91;5051290;28;1960;-41
2021/12/18 01:02:34;;;;;;;;;;;;;;;16.59;67.45;101363.34;5049746;28;1759;-41
2021/12/18 01:05:01;;;;;;;;;;;;;;;16.57;66.43;101369.72;5046968;28;1886;-41
2021/12/18 01:07:28;;;;;;;;;;;;;;;16.54;66.91;101372.63;5043004;28;1776;-41
2021/12/18 01:10:03;;;;;;;;;;;;;;;16.59;67.00;101373.16;5051650;28;1835;-41
2021/12/18 01:12:35;;;;;;;;;;;;;;;16.55;66.67;101377.84;5051367;28;1902;-42
2021/12/18 01:15:13;;;;;;;;;;;;;;;16.46;66.45;101375.81;5046566;28;2022;-41
2021/12/18 01:23:09;;;;;;;;;;;;;;;16.44;67.75;101389.25;5048643;28;1878;-41
2021/12/18 01:25:35;;;;;;;;;;;;;;;16.49;66.91;101383.59;5051482;28;1876;-41
2021/12/18 01:28:02;;;;;;;;;;;;;;;16.43;66.94;101376.00;5048634;28;1545;-41
2021/12/18 01:30:29;;;;;;;;;;;;;;;16.51;67.45;101392.34;5049605;28;1906;-41
2021/12/18 01:32:55;;;;;;;;;;;;;;;16.51;66.35;101376.34;5047692;28;1713;-42
2021/12/18 01:35:22;;;;;;;;;;;;;;;16.55;67.04;101375.16;5047476;28;1632;-41
2021/12/18 01:37:50;;;;;;;;;;;;;;;16.57;67.15;101375.91;5044955;28;1853;-41
2021/12/18 01:40:17;;;;;;;;;;;;;;;16.55;66.68;101367.16;5050781;28;1910;-41
2021/12/18 01:45:37;;;;;;;;;;;;;;;16.45;66.41;101350.06;5052027;28;2011;-41
2021/12/18 01:53:33;;;;;;;;;;;;;;;16.41;66.93;101353.91;5051023;28;1843;-41
2021/12/18 01:56:00;;;;;;;;;;;;;;;16.40;66.45;101344.19;5049031;28;1838;-43
2021/12/18 01:58:27;;;;;;;;;;;;;;;16.36;67.02;101358.72;5056112;28;1018;-41
2021/12/18 02:00:55;;;;;;;;;;;;;;;16.39;67.30;101339.81;5055098;28;1852;-41
2021/12/18 02:03:21;;;;;;;;;;;;;;;16.32;66.92;101352.72;5049406;28;1992;-41
2021/12/18 02:05:48;;;;;;;;;;;;;;;16.34;67.40;101342.78;5048163;28;1813;-41
2021/12/18 02:08:18;;;;;;;;;;;;;;;16.34;66.70;101352.63;5053217;28;1955;-41
2021/12/18 02:10:49;;;;;;;;;;;;;;;16.38;66.40;101352.31;5049415;28;1906;-41
2021/12/18 02:13:36;;;;;;;;;;;;;;;16.39;66.41;101350.47;5043095;28;1540;-41
2021/12/18 02:21:32;;;;;;;;;;;;;;;16.26;66.77;101345.97;5047609;28;1336;-42
2021/12/18 02:23:59;;;;;;;;;;;;;;;16.22;66.48;101344.47;5046639;28;2068;-41
2021/12/18 02:26:26;;;;;;;;;;;;;;;16.24;67.35;101347.91;5054117;28;1743;-41
2021/12/18 02:28:54;;;;;;;;;;;;;;;16.21;67.41;101350.75;5053959;28;1993;-41
2021/12/18 02:31:21;;;;;;;;;;;;;;;16.21;67.26;101358.75;5042300;28;1909;-41
2021/12/18 02:33:47;;;;;;;;;;;;;;;16.27;66.72;101345.03;5045666;28;1350;-41
2021/12/18 02:36:22;;;;;;;;;;;;;;;16.36;67.24;101350.72;5050177;28;1942;-42
2021/12/18 02:39:04;;;;;;;;;;;;;;;16.30;66.43;101357.31;5052899;28;2365;-41
2021/12/18 02:41:34;;;;;;;;;;;;;;;16.35;66.15;101357.00;5045384;28;1805;-41
2021/12/18 02:44:01;;;;;;;;;;;;;;;16.28;66.36;101365.41;5053263;28;1991;-41
2021/12/18 02:46:28;;;;;;;;;;;;;;;16.24;66.83;101365.72;5053863;28;1983;-42
2021/12/18 02:48:55;;;;;;;;;;;;;;;16.19;67.58;101371.34;5053920;28;2059;-42
2021/12/18 02:51:22;;;;;;;;;;;;;;;16.22;66.74;101376.50;5051790;28;1980;-41
2021/12/18 02:53:51;;;;;;;;;;;;;;;16.28;66.90;101376.09;5049949;28;1809;-41
2021/12/18 02:56:22;;;;;;;;;;;;;;;16.30;66.39;101382.19;5052651;28;1962;-41
2021/12/18 02:58:50;;;;;;;;;;;;;;;16.29;66.95;101383.16;5036487;28;1833;-41
2021/12/18 03:01:26;;;;;;;;;;;;;;;16.25;66.15;101400.34;5143228;22;3688;-39
2021/12/18 03:03:55;;;;;;;;;;;;;;;16.25;66.40;101397.66;5042516;28;1931;-40
2021/12/18 03:06:29;;;;;;;;;;;;;;;16.28;67.09;101399.25;5043295;28;1678;-39
2021/12/18 03:09:14;;;;;;;;;;;;;;;16.22;67.22;101389.84;5043032;28;1755;-41
2021/12/18 03:25:29;;;;;;;;;;;;;;;16.18;66.25;101406.16;5019552;28;1450;-39
2021/12/18 03:27:58;;;;;;;;;;;;;;;16.11;66.36;101413.69;5044475;28;1789;-39
2021/12/18 03:30:25;;;;;;;;;;;;;;;16.16;66.86;101416.94;5029050;28;1915;-39
2021/12/18 03:32:51;;;;;;;;;;;;;;;16.16;66.61;101411.59;5036779;28;1902;-39
2021/12/18 03:35:18;;;;;;;;;;;;;;;16.20;66.16;101422.94;5035890;28;1816;-39
2021/12/18 03:37:44;;;;;;;;;;;;;;;16.15;66.64;101412.53;5035553;28;1958;-39
2021/12/18 03:40:12;;;;;;;;;;;;;;;16.10;66.31;101415.53;5030733;28;1768;-39
2021/12/18 03:42:40;;;;;;;;;;;;;;;16.10;66.28;101442.22;5042861;28;1103;-39
2021/12/18 03:45:08;;;;;;;;;;;;;;;16.17;67.00;101431.97;5027038;28;1895;-39
2021/12/18 03:47:34;;;;;;;;;;;;;;;16.21;66.21;101438.81;5033526;28;1717;-39
2021/12/18 03:50:00;;;;;;;;;;;;;;;16.16;67.29;101442.78;5036347;28;1751;-40
2021/12/18 03:52:27;;;;;;;;;;;;;;;16.14;66.46;101450.88;5020461;28;2015;-39
2021/12/18 03:54:53;;;;;;;;;;;;;;;16.16;66.09;101450.78;5029888;28;1767;-39
2021/12/18 03:57:20;;;;;;;;;;;;;;;16.19;66.14;101454.06;5025203;28;1138;-39
2021/12/18 03:59:48;;;;;;;;;;;;;;;16.14;65.91;101455.38;5033220;28;2368;-39
2021/12/18 04:02:14;;;;;;;;;;;;;;;16.10;67.07;101455.53;5035509;28;2037;-40
2021/12/18 04:04:41;;;;;;;;;;;;;;;16.13;65.94;101457.16;5030263;28;1762;-40
2021/12/18 04:07:08;;;;;;;;;;;;;;;16.09;66.09;101464.53;5042975;28;2337;-39
2021/12/18 04:09:35;;;;;;;;;;;;;;;16.03;66.72;101456.03;5042284;28;1803;-39
2021/12/18 04:12:01;;;;;;;;;;;;;;;15.99;66.93;101473.19;5043176;28;1977;-39
2021/12/18 04:14:28;;;;;;;;;;;;;;;16.03;67.46;101467.56;5034554;28;1899;-39
2021/12/18 04:16:56;;;;;;;;;;;;;;;16.10;65.96;101463.56;5043968;28;2407;-39
2021/12/18 04:19:22;;;;;;;;;;;;;;;16.14;66.64;101484.72;5039028;28;1867;-39
2021/12/18 04:21:49;;;;;;;;;;;;;;;16.09;67.10;101482.31;5023542;28;1729;-39
2021/12/18 04:24:15;;;;;;;;;;;;;;;16.08;66.79;101488.63;5040224;28;2063;-40
2021/12/18 04:26:42;;;;;;;;;;;;;;;16.09;66.01;101498.31;5027604;28;1542;-39
2021/12/18 04:29:08;;;;;;;;;;;;;;;16.03;67.21;101504.91;5034395;28;1892;-39
2021/12/18 04:31:35;;;;;;;;;;;;;;;16.03;66.00;101504.06;5035537;28;1971;-39
2021/12/18 04:34:03;;;;;;;;;;;;;;;15.99;67.40;101500.72;5026692;28;1896;-40
2021/12/18 04:36:30;;;;;;;;;;;;;;;16.01;66.48;101505.97;5024212;28;1087;-39
2021/12/18 04:38:56;;;;;;;;;;;;;;;16.02;66.86;101513.03;5039129;28;1768;-39
2021/12/18 04:41:34;;;;;;;;;;;;;;;15.94;67.54;101508.19;5020617;28;1833;-40
2021/12/18 04:44:01;;;;;;;;;;;;;;;16.00;66.57;101523.78;5030865;28;1772;-39
2021/12/18 04:46:27;;;;;;;;;;;;;;;15.95;66.90;101519.69;5039614;28;1919;-39
2021/12/18 04:48:54;;;;;;;;;;;;;;;16.00;66.94;101526.47;5021552;28;1473;-39
2021/12/18 04:51:21;;;;;;;;;;;;;;;16.03;66.93;101525.41;5039657;28;2253;-39
2021/12/18 04:53:48;;;;;;;;;;;;;;;16.00;66.28;101522.94;5028604;28;1906;-40
2021/12/18 04:56:15;;;;;;;;;;;;;;;15.93;66.99;101517.13;5039295;28;2445;-39
2021/12/18 04:58:41;;;;;;;;;;;;;;;15.91;67.35;101530.56;5032425;28;1754;-39
2021/12/18 05:01:08;;;;;;;;;;;;;;;15.94;66.57;101520.66;5023875;28;1558;-39
2021/12/18 05:03:36;;;;;;;;;;;;;;;15.96;66.31;101530.28;5022545;28;1828;-39
2021/12/18 05:06:03;;;;;;;;;;;;;;;16.04;66.04;101532.47;5036154;28;1732;-39
2021/12/18 05:08:31;;;;;;;;;;;;;;;16.05;66.87;101529.69;5027175;28;1771;-39
2021/12/18 05:10:57;;;;;;;;;;;;;;;15.98;66.04;101524.84;5023220;28;1817;-39
2021/12/18 05:13:24;;;;;;;;;;;;;;;15.98;66.03;101531.03;5021449;28;1902;-39
2021/12/18 05:15:50;;;;;;;;;;;;;;;15.99;66.31;101535.41;5033751;28;1798;-39
2021/12/18 05:18:17;;;;;;;;;;;;;;;16.04;65.63;101548.47;5045206;28;1790;-39
2021/12/18 05:20:43;;;;;;;;;;;;;;;16.02;65.98;101561.91;5030676;28;1886;-39
2021/12/18 05:23:10;;;;;;;;;;;;;;;16.00;66.71;101573.63;5024350;28;1810;-39
2021/12/18 05:25:37;;;;;;;;;;;;;;;15.99;65.80;101569.22;5029357;28;1802;-42
2021/12/18 05:28:04;;;;;;;;;;;;;;;15.90;66.30;101558.19;5030854;28;1685;-39
2021/12/18 05:30:31;;;;;;;;;;;;;;;15.85;66.91;101578.94;5032363;28;1826;-39
2021/12/18 05:32:57;;;;;;;;;;;;;;;15.82;67.25;101587.16;5028156;28;1981;-39
2021/12/18 05:35:24;;;;;;;;;;;;;;;15.88;67.29;101580.59;5023728;28;1829;-39
2021/12/18 05:38:04;;;;;;;;;;;;;;;15.87;67.01;101590.38;5028408;28;1860;-39
2021/12/18 05:40:31;;;;;;;;;;;;;;;15.86;67.08;101587.81;5031832;28;1774;-39
2021/12/18 05:42:58;;;;;;;;;;;;;;;15.89;67.17;101596.47;5031989;28;1617;-39
2021/12/18 05:45:25;;;;;;;;;;;;;;;15.86;66.83;101599.34;5022183;28;1926;-40
2021/12/18 05:47:52;;;;;;;;;;;;;;;15.91;65.96;101586.56;5030108;28;1904;-39
2021/12/18 05:50:19;;;;;;;;;;;;;;;16.54;64.69;101579.06;5012425;28;1824;-39
2021/12/18 05:52:47;;;;;;;;;;;;;;;17.17;63.55;101577.63;4982369;28;2261;-39
2021/12/18 05:55:14;;;;;;;;;;;;;;;17.89;61.52;101567.28;5018325;28;2635;-37
2021/12/18 05:57:41;;;;;;;;;;;;;;;18.55;59.87;101576.91;5028073;28;2293;-37
2021/12/18 06:00:10;;;;;;;;;;;;;;;18.96;59.60;101557.78;5034959;28;3023;-38
2021/12/18 06:02:42;;;;;;;;;;;;;;;18.95;60.84;101573.97;5040987;28;1501;-37
2021/12/18 06:05:16;;;;;;;;;;;;;;;19.21;60.16;101577.34;5033533;28;2001;-37
2021/12/18 06:08:02;;;;;;;;;;;;;;;19.42;60.43;101605.19;5026323;28;1775;-38
2021/12/18 06:10:32;;;;;;;;;;;;;;;19.36;60.25;101594.94;5023333;28;1757;-37
2021/12/18 06:12:59;;;;;;;;;;;;;;;18.96;62.00;101591.72;5027181;28;1906;-38
2021/12/18 06:15:27;;;;;;;;;;;;;;;18.80;62.17;101608.09;5037202;28;2114;-37
2021/12/18 06:17:55;;;;;;;;;;;;;;;18.77;62.80;101602.94;5040775;28;1518;-37
2021/12/18 06:20:21;;;;;;;;;;;;;;;18.73;62.98;101622.91;5039805;28;1612;-37
2021/12/18 06:22:49;;;;;;;;;;;;;;;18.68;63.53;101626.78;5028014;28;1534;-37
2021/12/18 06:25:19;;;;;;;;;;;;;;;18.65;63.11;101627.00;5026548;28;1560;-37
2021/12/18 06:27:46;;;;;;;;;;;;;;;18.93;63.06;101633.03;5025255;28;1481;-36
2021/12/18 06:30:14;;;;;;;;;;;;;;;18.97;63.06;101630.97;5033614;28;1622;-36
2021/12/18 06:32:47;;;;;;;;;;;;;;;18.95;63.18;101623.06;5032443;28;1972;-37
2021/12/18 06:35:18;;;;;;;;;;;;;;;19.03;62.90;101634.06;5036398;28;1585;-37
2021/12/18 06:37:45;;;;;;;;;;;;;;;19.01;63.64;101649.41;5031362;28;1118;-37
2021/12/18 06:40:12;;;;;;;;;;;;;;;19.03;62.36;101649.28;5028234;28;1601;-37
2021/12/18 06:45:20;;;;;;;;;;;;;;;18.66;63.11;101676.06;5028878;28;2372;-37
2021/12/18 06:47:48;;;;;;;;;;;;;;;18.50;64.68;101670.94;5034533;28;1511;-37
2021/12/18 06:50:15;;;;;;;;;;;;;;;18.63;65.12;101671.78;5033734;28;1479;-37
2021/12/18 06:52:41;;;;;;;;;;;;;;;18.76;64.45;101678.94;5038008;28;1967;-37
2021/12/18 06:55:08;;;;;;;;;;;;;;;18.74;66.65;101699.63;5038753;28;1516;-37
2021/12/18 06:57:35;;;;;;;;;;;;;;;18.52;66.58;101690.44;5043013;28;1559;-37
2021/12/18 07:00:01;;;;;;;;;;;;;;;17.93;66.92;101676.81;5038953;28;1733;-38
2021/12/18 07:02:34;;;;;;;;;;;;;;;17.56;65.05;101687.31;5037863;28;1830;-37
2021/12/18 07:05:10;;;;;;;;;;;;;;;17.39;66.49;101694.66;5041902;28;1479;-37
2021/12/18 07:07:37;;;;;;;;;;;;;;;17.29;65.90;101698.91;5033341;28;1686;-37
2021/12/18 07:10:04;;;;;;;;;;;;;;;17.12;68.16;101685.78;5032761;28;1644;-38
2021/12/18 07:12:30;;;;;;;;;;;;;;;17.02;68.91;101701.56;5040154;28;1987;-37
2021/12/18 07:14:57;;;;;;;;;;;;;;;16.93;69.00;101694.13;5042571;28;1808;-38
2021/12/18 07:17:23;;;;;;;;;;;;;;;16.83;68.64;101708.09;5040699;28;1667;-38
2021/12/18 07:19:50;;;;;;;;;;;;;;;16.80;68.86;101718.06;5040819;28;1657;-37
2021/12/18 07:22:17;;;;;;;;;;;;;;;16.73;69.12;101722.06;5044786;28;1092;-38
2021/12/18 07:24:44;;;;;;;;;;;;;;;16.71;69.25;101719.50;5048703;28;2088;-37
2021/12/18 07:27:10;;;;;;;;;;;;;;;16.64;68.19;101723.53;5042721;28;1680;-37
2021/12/18 07:29:37;;;;;;;;;;;;;;;16.65;68.80;101741.25;5041049;28;1648;-37
2021/12/18 07:32:04;;;;;;;;;;;;;;;16.57;68.32;101723.03;5041320;28;1944;-37
2021/12/18 07:34:30;;;;;;;;;;;;;;;16.56;68.56;101720.50;5039264;28;1906;-37
2021/12/18 07:36:56;;;;;;;;;;;;;;;16.48;68.33;101718.28;5043603;28;1073;-37
2021/12/18 07:39:24;;;;;;;;;;;;;;;16.47;68.79;101719.22;5049939;28;1720;-37
2021/12/18 07:41:51;;;;;;;;;;;;;;;16.47;68.29;101732.56;5040728;28;1696;-37
2021/12/18 07:44:17;;;;;;;;;;;;;;;16.44;69.37;101738.97;5042028;28;1744;-37
2021/12/18 07:46:44;;;;;;;;;;;;;;;16.42;68.27;101730.22;5042383;28;2309;-37
2021/12/18 07:49:10;;;;;;;;;;;;;;;16.39;68.38;101737.53;5043157;28;1035;-37
2021/12/18 07:51:37;;;;;;;;;;;;;;;16.39;68.78;101737.53;5040932;28;1690;-37
2021/12/18 07:54:04;;;;;;;;;;;;;;;16.32;68.36;101733.56;5049967;28;1964;-37
2021/12/18 07:56:32;;;;;;;;;;;;;;;16.34;68.93;101726.31;5038725;28;1854;-39
2021/12/18 07:58:59;;;;;;;;;;;;;;;16.33;68.71;101740.59;5043567;28;1000;-37
2021/12/18 08:01:25;;;;;;;;;;;;;;;16.29;68.76;101727.44;5045607;28;1672;-37
2021/12/18 08:03:52;;;;;;;;;;;;;;;16.26;69.16;101732.97;5041117;28;1773;-37
2021/12/18 08:06:20;;;;;;;;;;;;;;;16.20;67.93;101725.34;5042759;28;1765;-37
2021/12/18 08:08:46;;;;;;;;;;;;;;;16.19;69.09;101723.59;5034490;28;1636;-38
2021/12/18 08:11:13;;;;;;;;;;;;;;;16.21;68.68;101721.69;5042010;28;1906;-38
2021/12/18 08:13:41;;;;;;;;;;;;;;;16.22;67.88;101744.78;5041247;28;1902;-37
2021/12/18 08:16:08;;;;;;;;;;;;;;;16.18;67.89;101756.59;5040125;28;1706;-37
2021/12/18 08:18:34;;;;;;;;;;;;;;;16.19;68.02;101750.28;5041579;28;1906;-37
2021/12/18 08:21:00;;;;;;;;;;;;;;;16.22;68.04;101759.94;5042718;28;1821;-37
2021/12/18 08:23:27;;;;;;;;;;;;;;;16.22;68.43;101755.44;5050768;28;1076;-37
2021/12/18 08:25:54;;;;;;;;;;;;;;;16.25;67.99;101755.28;5040516;28;1935;-37
2021/12/18 08:28:20;;;;;;;;;;;;;;;16.36;68.52;101759.09;5039954;28;1769;-37
2021/12/18 08:30:48;;;;;;;;;;;;;;;16.38;67.97;101766.06;5033543;28;1603;-37
2021/12/18 08:33:15;;;;;;;;;;;;;;;16.38;68.89;101765.22;5042572;28;1906;-37
2021/12/18 08:35:41;;;;;;;;;;;;;;;16.35;68.05;101754.69;5042304;28;1699;-37
2021/12/18 08:38:08;;;;;;;;;;;;;;;16.34;67.89;101769.00;5047573;28;1128;-37
2021/12/18 08:40:35;;;;;;;;;;;;;;;16.35;69.02;101770.72;5040573;28;1694;-37
2021/12/18 08:43:02;;;;;;;;;;;;;;;16.34;68.82;101771.69;5042358;28;1737;-37
2021/12/18 08:45:28;;;;;;;;;;;;;;;16.35;68.87;101770.72;5041829;28;1478;-37
2021/12/18 08:47:56;;;;;;;;;;;;;;;16.34;68.94;101759.19;5042164;28;1687;-37
2021/12/18 08:50:23;;;;;;;;;;;;;;;16.34;68.57;101771.69;5042250;28;1845;-37
2021/12/18 08:52:50;;;;;;;;;;;;;;;16.39;69.18;101780.25;5044105;28;1902;-37
2021/12/18 08:55:18;;;;;;;;;;;;;;;16.37;68.67;101774.16;5042680;28;1609;-38
2021/12/18 08:57:44;;;;;;;;;;;;;;;16.41;67.96;101762.31;5041898;28;1783;-37
2021/12/18 09:00:12;;;;;;;;;;;;;;;16.41;68.20;101765.00;5046394;28;1800;-37
2021/12/18 09:02:40;;;;;;;;;;;;;;;16.34;68.39;101777.88;5038699;28;1492;-37
2021/12/18 09:05:08;;;;;;;;;;;;;;;16.33;69.20;101772.63;5039733;28;1212;-37
2021/12/18 09:07:35;;;;;;;;;;;;;;;16.30;69.27;101774.53;5039615;28;1914;-37
2021/12/18 09:10:02;;;;;;;;;;;;;;;16.27;68.99;101784.53;5044591;28;1567;-37
2021/12/18 09:12:28;;;;;;;;;;;;;;;16.23;68.58;101780.31;5041366;28;1700;-37
2021/12/18 09:14:54;;;;;;;;;;;;;;;16.22;68.66;101776.81;5041450;28;1902;-37
2021/12/18 09:17:21;;;;;;;;;;;;;;;16.21;68.75;101764.41;5039594;28;1921;-37
2021/12/18 09:19:47;;;;;;;;;;;;;;;16.28;69.05;101779.09;5039368;28;1678;-37
2021/12/18 09:22:15;;;;;;;;;;;;;;;16.29;68.07;101786.16;5043426;28;1071;-37
2021/12/18 09:24:42;;;;;;;;;;;;;;;16.29;68.48;101787.97;5047440;28;1910;-37
2021/12/18 09:27:08;;;;;;;;;;;;;;;16.26;68.85;101783.69;5040338;28;1752;-37
2021/12/18 09:29:35;;;;;;;;;;;;;;;16.18;68.36;101777.94;5038682;28;1534;-37
2021/12/18 09:32:01;;;;;;;;;;;;;;;16.16;68.60;101777.19;5039874;28;1727;-37
2021/12/18 09:34:30;;;;;;;;;;;;;;;16.17;69.01;101778.88;5040948;28;1906;-37
2021/12/18 09:36:56;;;;;;;;;;;;;;;16.16;68.51;101787.00;5039452;28;1150;-37
2021/12/18 09:39:24;;;;;;;;;;;;;;;16.16;69.07;101779.84;5048231;28;2306;-38
2021/12/18 09:41:51;;;;;;;;;;;;;;;16.17;68.42;101778.88;5039276;28;1855;-37
2021/12/18 09:44:21;;;;;;;;;;;;;;;16.15;68.47;101780.78;5040669;28;1801;-37
2021/12/18 09:46:48;;;;;;;;;;;;;;;16.17;68.30;101772.69;5040871;28;1625;-37
2021/12/18 09:49:14;;;;;;;;;;;;;;;16.12;69.40;101772.13;5038347;28;1926;-38
2021/12/18 09:51:41;;;;;;;;;;;;;;;16.09;68.98;101778.47;5040043;28;1154;-38
2021/12/18 09:54:07;;;;;;;;;;;;;;;16.06;68.37;101784.03;5047354;28;1905;-38
2021/12/18 09:56:42;;;;;;;;;;;;;;;16.04;68.85;101780.59;5041319;28;1548;-37
2021/12/18 09:59:09;;;;;;;;;;;;;;;16.01;68.32;101773.59;5038979;28;1130;-37
2021/12/18 10:01:42;;;;;;;;;;;;;;;16.02;68.37;101775.34;5042557;28;1660;-38
2021/12/18 10:04:24;;;;;;;;;;;;;;;15.98;68.50;101787.13;5042202;28;1816;-37
2021/12/18 10:06:50;;;;;;;;;;;;;;;15.96;68.37;101785.53;5044999;28;1918;-37
2021/12/18 10:09:30;;;;;;;;;;;;;;;15.97;69.18;101780.06;5047110;28;1677;-37
2021/12/18 10:11:58;;;;;;;;;;;;;;;15.95;69.30;101783.78;5042647;28;1560;-37
2021/12/18 10:14:32;;;;;;;;;;;;;;;15.91;69.60;101769.75;5044564;28;1989;-38
2021/12/18 10:16:59;;;;;;;;;;;;;;;15.96;68.38;101769.50;5043616;28;1553;-37
2021/12/18 10:19:26;;;;;;;;;;;;;;;16.01;68.36;101770.09;5044575;28;1685;-37
2021/12/18 10:21:57;;;;;;;;;;;;;;;16.02;68.21;101769.16;5044467;28;1083;-37
2021/12/18 10:24:24;;;;;;;;;;;;;;;15.98;69.03;101751.59;5051252;28;1830;-37
2021/12/18 10:26:50;;;;;;;;;;;;;;;15.98;67.96;101770.28;5042493;28;1809;-37
2021/12/18 10:29:25;;;;;;;;;;;;;;;16.10;67.37;101756.19;5043685;28;1721;-37
2021/12/18 10:31:52;;;;;;;;;;;;;;;16.15;68.79;101755.91;5040337;28;1581;-37
2021/12/18 10:34:20;;;;;;;;;;;;;;;16.17;67.91;101751.34;5043613;28;1906;-37
2021/12/18 10:37:05;;;;;;;;;;;;;;;16.10;67.82;101757.06;5046592;28;1141;-37
2021/12/18 10:39:33;;;;;;;;;;;;;;;16.11;67.98;101763.25;5039126;28;1722;-37
2021/12/18 10:42:14;;;;;;;;;;;;;;;16.12;67.86;101759.63;5042259;28;2365;-37
2021/12/18 10:44:54;;;;;;;;;;;;;;;16.12;68.24;101772.97;5041773;28;1817;-37
2021/12/18 10:47:21;;;;;;;;;;;;;;;16.09;69.14;101759.81;5042722;28;1531;-37
2021/12/18 10:49:47;;;;;;;;;;;;;;;16.05;68.07;101758.28;5042450;28;1456;-37
2021/12/18 10:52:14;;;;;;;;;;;;;;;16.09;68.01;101765.13;5046361;28;1079;-37
2021/12/18 10:54:40;;;;;;;;;;;;;;;16.12;68.58;101762.31;5050080;28;1965;-37
2021/12/18 10:57:19;;;;;;;;;;;;;;;16.06;68.13;101749.34;5044431;28;1661;-37
2021/12/18 10:59:50;;;;;;;;;;;;;;;16.04;68.09;101754.75;5043727;28;1067;-38
2021/12/18 11:02:17;;;;;;;;;;;;;;;16.07;68.10;101757.22;5041446;28;2235;-37
2021/12/18 11:04:44;;;;;;;;;;;;;;;16.10;67.94;101751.72;5040540;28;2177;-37
2021/12/18 11:07:17;;;;;;;;;;;;;;;16.11;67.83;101757.91;5035308;28;1708;-37
2021/12/18 11:09:49;;;;;;;;;;;;;;;16.05;68.91;101753.78;5048531;28;1771;-37
2021/12/18 11:15:01;;;;;;;;;;;;;;;16.12;68.81;101758.78;5036598;28;1910;-37
2021/12/18 11:17:28;;;;;;;;;;;;;;;16.16;68.95;101755.81;5042296;28;1646;-37
2021/12/18 11:19:55;;;;;;;;;;;;;;;16.21;67.86;101736.84;5041184;28;1570;-37
2021/12/18 11:22:22;;;;;;;;;;;;;;;16.23;68.44;101748.28;5045480;28;2110;-37
2021/12/18 11:24:54;;;;;;;;;;;;;;;16.17;67.83;101746.00;5048606;28;1839;-37
2021/12/18 11:27:21;;;;;;;;;;;;;;;16.19;67.97;101749.44;5043365;28;1667;-38
2021/12/18 11:29:51;;;;;;;;;;;;;;;16.21;68.58;101745.72;5042185;28;1789;-37
2021/12/18 11:32:20;;;;;;;;;;;;;;;16.18;68.08;101732.56;5041723;28;1680;-37
2021/12/18 11:34:47;;;;;;;;;;;;;;;16.21;67.54;101737.72;5041119;28;1918;-37
2021/12/18 11:37:15;;;;;;;;;;;;;;;16.25;67.57;101739.28;5045622;28;1250;-37
2021/12/18 11:39:43;;;;;;;;;;;;;;;16.28;67.70;101735.53;5049477;28;1993;-37
2021/12/18 11:42:10;;;;;;;;;;;;;;;16.26;67.30;101740.13;5042416;28;1715;-37
2021/12/18 11:44:38;;;;;;;;;;;;;;;16.36;68.31;101748.41;5041239;28;2057;-37
2021/12/18 11:47:29;;;;;;;;;;;;;;;16.33;68.50;101740.59;5040942;28;1590;-37
2021/12/18 11:49:57;;;;;;;;;;;;;;;16.32;67.96;101753.09;5043568;28;1758;-37
2021/12/18 11:52:25;;;;;;;;;;;;;;;16.27;67.50;101745.38;5044935;28;1104;-37
2021/12/18 11:54:53;;;;;;;;;;;;;;;16.22;67.47;101751.94;5047468;28;1905;-37
2021/12/18 11:57:37;;;;;;;;;;;;;;;16.15;67.70;101770.09;5042880;28;1543;-37
2021/12/18 12:00:05;;;;;;;;;;;;;;;16.15;68.46;101763.91;5046285;28;1720;-37
2021/12/18 12:02:44;;;;;;;;;;;;;;;16.11;68.54;101763.25;5044910;28;1533;-37
2021/12/18 12:05:11;;;;;;;;;;;;;;;16.03;68.11;101754.84;5042969;28;1146;-37
2021/12/18 12:07:38;;;;;;;;;;;;;;;16.02;67.96;101763.81;5039961;28;1904;-37
2021/12/18 12:10:19;;;;;;;;;;;;;;;15.95;68.48;101757.97;5045986;28;1688;-37
2021/12/18 12:12:50;;;;;;;;;;;;;;;15.99;67.94;101775.50;5042911;28;1683;-37
2021/12/18 12:15:17;;;;;;;;;;;;;;;16.04;67.82;101768.09;5042242;28;1902;-37
2021/12/18 12:17:55;;;;;;;;;;;;;;;16.00;68.13;101765.72;5042438;28;1843;-37
2021/12/18 12:20:35;;;;;;;;;;;;;;;15.99;68.11;101756.81;5042679;28;1724;-37
2021/12/18 12:23:02;;;;;;;;;;;;;;;15.99;68.82;101758.66;5047247;28;1035;-37
2021/12/18 12:25:34;;;;;;;;;;;;;;;15.98;68.02;101755.13;5041968;28;1888;-37
2021/12/18 12:28:03;;;;;;;;;;;;;;;15.98;67.97;101746.28;5041291;28;1484;-37
2021/12/18 12:30:30;;;;;;;;;;;;;;;16.00;67.67;101755.88;5041954;28;1483;-37
2021/12/18 12:32:59;;;;;;;;;;;;;;;16.06;67.61;101762.69;5042103;28;1539;-37
2021/12/18 12:35:27;;;;;;;;;;;;;;;16.00;67.70;101760.38;5042105;28;1913;-37
2021/12/18 12:37:54;;;;;;;;;;;;;;;15.98;67.76;101767.63;5047163;28;1073;-37
2021/12/18 12:40:31;;;;;;;;;;;;;;;15.90;68.55;101771.59;5042655;28;2060;-37
2021/12/18 12:43:11;;;;;;;;;;;;;;;15.88;67.89;101768.16;5043058;28;1717;-38
2021/12/18 12:45:39;;;;;;;;;;;;;;;15.90;68.51;101760.91;5042324;28;1859;-37
2021/12/18 12:48:07;;;;;;;;;;;;;;;15.90;68.49;101765.41;5042276;28;1495;-37
2021/12/18 12:50:34;;;;;;;;;;;;;;;15.90;67.74;101760.06;5042204;28;1968;-37
2021/12/18 12:53:01;;;;;;;;;;;;;;;15.91;68.33;101772.44;5046202;28;1261;-37
2021/12/18 12:55:28;;;;;;;;;;;;;;;15.89;68.42;101763.66;5041571;28;1988;-37
2021/12/18 12:57:56;;;;;;;;;;;;;;;15.87;68.28;101766.41;5041919;28;1647;-37
2021/12/18 13:00:46;;;;;;;;;;;;;;;15.86;68.92;101763.88;5046224;28;1651;-37
2021/12/18 13:03:27;;;;;;;;;;;;;;;15.86;69.21;101766.53;5039617;28;1933;-37
2021/12/18 13:05:58;;;;;;;;;;;;;;;15.88;68.81;101768.16;5000386;28;1516;-37
2021/12/18 13:08:25;;;;;;;;;;;;;;;15.87;68.10;101766.41;5004110;28;1147;-37
2021/12/18 13:10:54;;;;;;;;;;;;;;;15.86;67.74;101766.53;4999875;28;1868;-38
2021/12/18 13:13:22;;;;;;;;;;;;;;;15.86;68.36;101758.53;5000282;28;1871;-37
2021/12/18 13:15:50;;;;;;;;;;;;;;;15.86;67.74;101772.72;4993861;28;1902;-37
2021/12/18 13:18:17;;;;;;;;;;;;;;;15.81;68.60;101771.25;5002286;28;1983;-37
2021/12/18 13:20:45;;;;;;;;;;;;;;;15.80;67.84;101775.75;5002288;28;1723;-37
2021/12/18 13:23:17;;;;;;;;;;;;;;;15.76;67.98;101776.03;5008403;28;1035;-37
2021/12/18 13:25:48;;;;;;;;;;;;;;;15.77;69.01;101775.91;5000116;28;1811;-37
2021/12/18 13:28:15;;;;;;;;;;;;;;;15.73;69.32;101790.38;5001312;28;1683;-37
2021/12/18 13:30:41;;;;;;;;;;;;;;;15.75;67.94;101780.47;5002245;28;1966;-37
2021/12/18 13:33:08;;;;;;;;;;;;;;;15.76;68.01;101773.34;5002041;28;1635;-37